Time;durP1;ratioP1;P1;durP2;ratioP2;P2;SDS_P1;SDS_P2;PMS_P1;PMS_P2;Temp;Humidity;BMP_temperature;BMP_pressure;BME280_temperature;BME280_humidity;BME280_pressure;Samples;Min_cycle;Max_cycle;Signal;HPM_P1;HPM_P2
2021/12/01 00:01:03;;;;;;;1.30;0.70;;;;;;;;;;5033162;28;20411;-63
2021/12/01 00:03:29;;;;;;;1.43;1.00;;;;;;;;;;5032418;28;20565;-63
2021/12/01 00:05:56;;;;;;;1.30;0.80;;;;;;;;;;5032712;28;20450;-63
2021/12/01 00:08:22;;;;;;;1.50;0.90;;;;;;;;;;5033171;28;20407;-63
2021/12/01 00:10:48;;;;;;;1.40;0.83;;;;;;;;;;5032871;28;20414;-63
2021/12/01 00:13:16;;;;;;;1.30;0.90;;;;;;;;;;5032935;28;20420;-63
2021/12/01 00:15:43;;;;;;;1.30;0.80;;;;;;;;;;5032766;28;20443;-63
2021/12/01 00:18:09;;;;;;;1.30;0.70;;;;;;;;;;5032964;28;20449;-63
2021/12/01 00:20:35;;;;;;;2.90;0.80;;;;;;;;;;5033149;28;20431;-63
2021/12/01 00:23:01;;;;;;;1.20;0.80;;;;;;;;;;5032844;28;20769;-63
2021/12/01 00:25:28;;;;;;;1.20;0.70;;;;;;;;;;5032570;28;20488;-63
2021/12/01 00:27:54;;;;;;;1.60;0.80;;;;;;;;;;5032823;28;20422;-63
2021/12/01 00:30:21;;;;;;;1.50;0.80;;;;;;;;;;5032821;28;20826;-63
2021/12/01 00:32:47;;;;;;;1.30;0.73;;;;;;;;;;5032676;28;20848;-63
2021/12/01 00:35:13;;;;;;;2.07;0.80;;;;;;;;;;5032484;28;20897;-63
2021/12/01 00:37:41;;;;;;;1.20;0.80;;;;;;;;;;5032555;28;20561;-63
2021/12/01 00:40:08;;;;;;;1.30;0.90;;;;;;;;;;5032435;28;20881;-63
2021/12/01 00:42:34;;;;;;;1.47;0.73;;;;;;;;;;5032372;28;20415;-63
2021/12/01 00:45:07;;;;;;;2.27;0.90;;;;;;;;;;5032538;28;20816;-63
2021/12/01 00:50:26;;;;;;;1.20;0.70;;;;;;;;;;5052375;28;20513;-66
2021/12/01 00:52:53;;;;;;;1.20;0.70;;;;;;;;;;5052309;28;20402;-66
2021/12/01 00:55:19;;;;;;;1.30;0.70;;;;;;;;;;5051377;28;20753;-66
2021/12/01 00:57:45;;;;;;;2.40;0.70;;;;;;;;;;5062271;28;20476;-66
2021/12/01 01:00:12;;;;;;;1.20;0.70;;;;;;;;;;5055798;28;20422;-66
2021/12/01 01:02:38;;;;;;;1.20;0.70;;;;;;;;;;5055918;28;20418;-66
2021/12/01 01:05:05;;;;;;;1.70;0.77;;;;;;;;;;5052553;28;20926;-65
2021/12/01 01:07:32;;;;;;;1.30;0.90;;;;;;;;;;5052398;28;20816;-65
2021/12/01 01:10:04;;;;;;;1.40;0.70;;;;;;;;;;5052437;28;20410;-65
2021/12/01 01:18:09;;;;;;;1.50;0.80;;;;;;;;;;5057368;28;20436;-65
2021/12/01 01:20:35;;;;;;;1.40;0.90;;;;;;;;;;5056767;28;20420;-66
2021/12/01 01:23:01;;;;;;;1.20;0.70;;;;;;;;;;5056474;28;20386;-65
2021/12/01 01:25:28;;;;;;;1.93;0.80;;;;;;;;;;5055902;28;20447;-65
2021/12/01 01:27:54;;;;;;;1.30;0.80;;;;;;;;;;5056181;28;20437;-65
2021/12/01 01:30:20;;;;;;;1.27;0.80;;;;;;;;;;5056274;28;20513;-65
2021/12/01 01:32:46;;;;;;;1.20;0.80;;;;;;;;;;5056161;28;20421;-66
2021/12/01 01:35:13;;;;;;;1.40;0.90;;;;;;;;;;5056041;28;20414;-65
2021/12/01 01:37:39;;;;;;;1.30;0.83;;;;;;;;;;5056833;28;20528;-66
2021/12/01 01:40:06;;;;;;;1.70;1.10;;;;;;;;;;5055643;28;20417;-66
2021/12/01 01:42:32;;;;;;;1.40;0.90;;;;;;;;;;5055834;28;20896;-65
2021/12/01 01:44:58;;;;;;;1.20;0.70;;;;;;;;;;5055528;28;20506;-65
2021/12/01 01:47:24;;;;;;;1.20;0.70;;;;;;;;;;5055343;28;20486;-66
2021/12/01 01:50:13;;;;;;;1.27;0.83;;;;;;;;;;5055441;28;20429;-66
2021/12/01 01:52:39;;;;;;;1.93;0.83;;;;;;;;;;5055519;28;20417;-65
2021/12/01 01:55:06;;;;;;;1.33;0.80;;;;;;;;;;5055519;28;20799;-66
2021/12/01 01:57:32;;;;;;;1.30;1.00;;;;;;;;;;5055484;28;20449;-65
2021/12/01 01:59:58;;;;;;;4.17;0.77;;;;;;;;;;5055242;28;20414;-66
2021/12/01 02:02:24;;;;;;;1.23;0.70;;;;;;;;;;5055760;28;20410;-66
2021/12/01 02:04:51;;;;;;;1.30;0.90;;;;;;;;;;5055227;28;20552;-66
2021/12/01 02:07:17;;;;;;;1.30;0.80;;;;;;;;;;5056325;28;20525;-66
2021/12/01 02:09:43;;;;;;;1.30;0.83;;;;;;;;;;5055296;28;20505;-66
2021/12/01 02:12:10;;;;;;;1.50;1.10;;;;;;;;;;5054989;28;20406;-64
2021/12/01 02:14:36;;;;;;;1.40;0.90;;;;;;;;;;5055095;28;20402;-65
2021/12/01 02:17:02;;;;;;;1.40;0.80;;;;;;;;;;5055189;28;20437;-65
2021/12/01 02:19:28;;;;;;;1.30;0.77;;;;;;;;;;5055192;28;20496;-65
2021/12/01 02:21:54;;;;;;;1.30;0.80;;;;;;;;;;5046589;28;20845;-66
2021/12/01 02:24:22;;;;;;;1.20;0.70;;;;;;;;;;5046411;28;20486;-65
2021/12/01 02:26:49;;;;;;;1.30;0.80;;;;;;;;;;5054666;28;20422;-66
2021/12/01 02:29:17;;;;;;;1.30;0.80;;;;;;;;;;5057000;28;20418;-66
2021/12/01 02:31:45;;;;;;;1.40;0.83;;;;;;;;;;5054946;28;20433;-67
2021/12/01 02:34:13;;;;;;;1.30;0.70;;;;;;;;;;5055027;28;20422;-66
2021/12/01 02:36:40;;;;;;;1.20;0.70;;;;;;;;;;5054768;28;20422;-66
2021/12/01 02:39:11;;;;;;;1.20;0.73;;;;;;;;;;5055549;28;20457;-66
2021/12/01 02:41:37;;;;;;;1.30;0.80;;;;;;;;;;5054738;28;20411;-66
2021/12/01 02:44:05;;;;;;;1.30;0.73;;;;;;;;;;5054737;28;20433;-66
2021/12/01 02:46:31;;;;;;;1.30;0.70;;;;;;;;;;5054083;28;20997;-66
2021/12/01 02:48:58;;;;;;;1.33;0.70;;;;;;;;;;5054486;28;20818;-66
2021/12/01 02:51:30;;;;;;;1.67;0.80;;;;;;;;;;5054771;28;20912;-66
2021/12/01 02:53:56;;;;;;;1.30;0.87;;;;;;;;;;5054307;28;20394;-66
2021/12/01 02:56:23;;;;;;;1.40;0.90;;;;;;;;;;5055393;28;20461;-66
2021/12/01 02:58:49;;;;;;;1.30;0.80;;;;;;;;;;5054089;28;20414;-66
2021/12/01 03:01:17;;;;;;;1.30;0.70;;;;;;;;;;5054103;28;20834;-67
2021/12/01 03:03:43;;;;;;;1.50;0.83;;;;;;;;;;5054437;28;20398;-66
2021/12/01 03:06:10;;;;;;;1.30;0.77;;;;;;;;;;5054320;28;20463;-66
2021/12/01 03:08:37;;;;;;;1.30;0.83;;;;;;;;;;5054394;28;20410;-66
2021/12/01 03:11:03;;;;;;;1.33;0.80;;;;;;;;;;5054126;28;20796;-66
2021/12/01 03:13:29;;;;;;;1.20;0.80;;;;;;;;;;5053024;28;20398;-66
2021/12/01 03:15:55;;;;;;;1.30;0.77;;;;;;;;;;5053548;28;20405;-65
2021/12/01 03:18:22;;;;;;;1.30;0.80;;;;;;;;;;5053988;28;20422;-65
2021/12/01 03:20:49;;;;;;;1.30;0.80;;;;;;;;;;5053663;28;20777;-65
2021/12/01 03:23:16;;;;;;;1.30;0.70;;;;;;;;;;5053867;28;20535;-65
2021/12/01 03:25:42;;;;;;;1.50;0.90;;;;;;;;;;5053850;28;20457;-66
2021/12/01 03:28:09;;;;;;;1.40;0.93;;;;;;;;;;5060143;28;20486;-66
2021/12/01 03:30:37;;;;;;;1.30;0.70;;;;;;;;;;5054504;28;20413;-66
2021/12/01 03:33:05;;;;;;;1.27;0.73;;;;;;;;;;5053881;28;20409;-66
2021/12/01 03:35:31;;;;;;;1.30;0.80;;;;;;;;;;5053557;28;20496;-66
2021/12/01 03:37:57;;;;;;;1.30;0.80;;;;;;;;;;5053450;28;20883;-66
2021/12/01 03:40:23;;;;;;;1.30;0.80;;;;;;;;;;5053140;28;20989;-66
2021/12/01 03:42:50;;;;;;;1.30;0.70;;;;;;;;;;5053198;28;20410;-66
2021/12/01 03:45:16;;;;;;;1.30;0.70;;;;;;;;;;5052994;28;20492;-66
2021/12/01 03:47:42;;;;;;;1.40;0.80;;;;;;;;;;5052899;28;20491;-66
2021/12/01 03:50:09;;;;;;;1.40;0.83;;;;;;;;;;5053192;28;20421;-66
2021/12/01 03:52:35;;;;;;;1.30;0.77;;;;;;;;;;5049437;28;20434;-66
2021/12/01 03:55:01;;;;;;;1.30;0.77;;;;;;;;;;5044239;28;20422;-66
2021/12/01 03:57:27;;;;;;;1.30;0.73;;;;;;;;;;5033172;28;20492;-66
2021/12/01 03:59:53;;;;;;;1.30;0.70;;;;;;;;;;5046577;28;20437;-66
2021/12/01 04:02:19;;;;;;;1.30;0.70;;;;;;;;;;5052956;28;20442;-66
2021/12/01 04:04:46;;;;;;;1.30;0.80;;;;;;;;;;5053211;28;20823;-66
2021/12/01 04:07:12;;;;;;;1.60;0.90;;;;;;;;;;5052822;28;20425;-66
2021/12/01 04:09:39;;;;;;;1.30;0.80;;;;;;;;;;5052776;28;20426;-65
2021/12/01 04:12:05;;;;;;;1.60;0.80;;;;;;;;;;5052761;28;20508;-66
2021/12/01 04:14:31;;;;;;;1.30;0.73;;;;;;;;;;5052824;28;20505;-66
2021/12/01 04:16:57;;;;;;;1.60;0.77;;;;;;;;;;5052705;28;20904;-66
2021/12/01 04:19:23;;;;;;;1.40;1.00;;;;;;;;;;5052341;28;20786;-65
2021/12/01 04:21:49;;;;;;;1.40;1.10;;;;;;;;;;5052656;28;20773;-65
2021/12/01 04:24:15;;;;;;;1.40;0.90;;;;;;;;;;5052592;28;20414;-66
2021/12/01 04:26:41;;;;;;;1.50;0.90;;;;;;;;;;5052787;28;20991;-66
2021/12/01 04:29:07;;;;;;;1.50;1.10;;;;;;;;;;5053072;28;20428;-66
2021/12/01 04:31:35;;;;;;;1.30;0.90;;;;;;;;;;5052491;28;20504;-66
2021/12/01 04:34:02;;;;;;;1.60;0.90;;;;;;;;;;5052733;28;20438;-66
2021/12/01 04:36:34;;;;;;;1.40;0.93;;;;;;;;;;5052693;28;20422;-65
2021/12/01 04:39:03;;;;;;;1.90;0.90;;;;;;;;;;5048044;28;20437;-65
2021/12/01 04:41:36;;;;;;;1.50;1.00;;;;;;;;;;5032411;28;20423;-65
2021/12/01 04:44:04;;;;;;;1.30;0.80;;;;;;;;;;5039916;28;20421;-65
2021/12/01 04:46:34;;;;;;;1.60;1.20;;;;;;;;;;5052143;28;20580;-65
2021/12/01 04:49:00;;;;;;;3.73;1.20;;;;;;;;;;5052914;28;20760;-65
2021/12/01 04:51:26;;;;;;;1.80;1.00;;;;;;;;;;5071461;28;20930;-65
2021/12/01 04:53:52;;;;;;;1.50;0.90;;;;;;;;;;5056547;28;20410;-65
2021/12/01 04:56:18;;;;;;;1.63;1.00;;;;;;;;;;5056786;28;20468;-65
2021/12/01 04:58:44;;;;;;;1.70;1.00;;;;;;;;;;5056544;28;20408;-66
2021/12/01 05:01:11;;;;;;;3.33;0.90;;;;;;;;;;5063974;28;20423;-66
2021/12/01 05:03:37;;;;;;;1.87;1.00;;;;;;;;;;5056362;28;20401;-66
2021/12/01 05:06:03;;;;;;;1.30;0.87;;;;;;;;;;5056229;28;20452;-66
2021/12/01 05:08:29;;;;;;;1.30;0.80;;;;;;;;;;5056521;28;20401;-66
2021/12/01 05:10:55;;;;;;;1.50;0.90;;;;;;;;;;5062472;28;20409;-65
2021/12/01 05:13:21;;;;;;;1.30;0.80;;;;;;;;;;5056275;28;20779;-64
2021/12/01 05:15:47;;;;;;;1.50;0.90;;;;;;;;;;5056238;28;20810;-65
2021/12/01 05:18:13;;;;;;;1.40;0.87;;;;;;;;;;5056271;28;20508;-64
2021/12/01 05:20:39;;;;;;;1.70;1.07;;;;;;;;;;5056523;28;20467;-66
2021/12/01 05:23:06;;;;;;;1.40;0.80;;;;;;;;;;5056691;28;20934;-64
2021/12/01 05:25:32;;;;;;;1.30;0.70;;;;;;;;;;5056141;28;20457;-64
2021/12/01 05:27:58;;;;;;;1.30;0.83;;;;;;;;;;5056060;28;20413;-66
2021/12/01 05:30:25;;;;;;;1.40;0.90;;;;;;;;;;5060716;28;20960;-65
2021/12/01 05:32:51;;;;;;;1.40;0.80;;;;;;;;;;5056221;28;20475;-65
2021/12/01 05:35:17;;;;;;;1.50;1.03;;;;;;;;;;5056061;28;20433;-66
2021/12/01 05:37:43;;;;;;;2.83;0.90;;;;;;;;;;5055957;28;20525;-67
2021/12/01 05:40:09;;;;;;;1.70;1.00;;;;;;;;;;5056664;28;20414;-65
2021/12/01 05:42:35;;;;;;;1.30;0.70;;;;;;;;;;5060683;28;20437;-65
2021/12/01 05:45:01;;;;;;;1.87;0.70;;;;;;;;;;5055609;28;20456;-66
2021/12/01 05:47:27;;;;;;;1.30;0.80;;;;;;;;;;5055536;28;20572;-67
2021/12/01 05:49:53;;;;;;;1.47;0.90;;;;;;;;;;5055715;28;20452;-66
2021/12/01 05:52:19;;;;;;;1.77;1.00;;;;;;;;;;5060440;28;20520;-66
2021/12/01 05:54:50;;;;;;;3.20;1.20;;;;;;;;;;5055690;28;20413;-66
2021/12/01 05:57:16;;;;;;;1.33;0.90;;;;;;;;;;5055241;28;20430;-66
2021/12/01 05:59:42;;;;;;;1.50;1.13;;;;;;;;;;5055257;28;20408;-66
2021/12/01 06:02:08;;;;;;;1.93;1.00;;;;;;;;;;5053824;28;20505;-66
2021/12/01 06:04:34;;;;;;;3.80;1.20;;;;;;;;;;5055063;28;20413;-66
2021/12/01 06:07:00;;;;;;;1.60;1.23;;;;;;;;;;5055163;28;20452;-66
2021/12/01 06:09:26;;;;;;;1.40;1.00;;;;;;;;;;5055087;28;20402;-66
2021/12/01 06:11:53;;;;;;;1.30;0.90;;;;;;;;;;5060831;28;20416;-66
2021/12/01 06:14:19;;;;;;;1.70;1.27;;;;;;;;;;5054451;28;20413;-66
2021/12/01 06:16:46;;;;;;;1.60;1.13;;;;;;;;;;5054815;28;20924;-66
2021/12/01 06:19:12;;;;;;;2.30;1.43;;;;;;;;;;5054807;28;20405;-67
2021/12/01 06:21:38;;;;;;;1.70;1.30;;;;;;;;;;5054932;28;20448;-66
2021/12/01 06:24:04;;;;;;;1.70;1.07;;;;;;;;;;5054503;28;20481;-66
2021/12/01 06:26:30;;;;;;;1.70;1.20;;;;;;;;;;5054916;28;20978;-66
2021/12/01 06:28:56;;;;;;;1.70;0.90;;;;;;;;;;5054964;28;20447;-66
2021/12/01 06:31:23;;;;;;;2.37;1.30;;;;;;;;;;5055225;28;20418;-66
2021/12/01 06:33:49;;;;;;;3.07;1.10;;;;;;;;;;5054745;28;20421;-65
2021/12/01 06:36:15;;;;;;;2.43;1.30;;;;;;;;;;5054713;28;20941;-66
2021/12/01 06:38:41;;;;;;;2.90;1.27;;;;;;;;;;5054791;28;20398;-67
2021/12/01 06:41:08;;;;;;;2.13;1.20;;;;;;;;;;5061189;28;20829;-66
2021/12/01 06:43:34;;;;;;;2.17;1.23;;;;;;;;;;5068989;28;20496;-64
2021/12/01 06:46:00;;;;;;;2.73;1.23;;;;;;;;;;5055272;28;20469;-65
2021/12/01 06:48:26;;;;;;;1.77;1.43;;;;;;;;;;5054420;28;20418;-64
2021/12/01 06:50:53;;;;;;;3.00;1.13;;;;;;;;;;5054945;28;20453;-64
2021/12/01 06:53:19;;;;;;;2.17;1.37;;;;;;;;;;5054427;28;20422;-66
2021/12/01 06:55:45;;;;;;;4.40;1.33;;;;;;;;;;5054266;28;20410;-65
2021/12/01 06:58:11;;;;;;;2.00;1.27;;;;;;;;;;5054341;28;20464;-65
2021/12/01 07:00:37;;;;;;;1.90;1.47;;;;;;;;;;5060180;28;20436;-65
2021/12/01 07:03:03;;;;;;;2.27;1.57;;;;;;;;;;5069099;28;20424;-65
2021/12/01 07:05:29;;;;;;;3.47;1.87;;;;;;;;;;5054579;28;20480;-66
2021/12/01 07:07:56;;;;;;;1.67;1.20;;;;;;;;;;5054101;28;20794;-65
2021/12/01 07:10:23;;;;;;;2.87;1.40;;;;;;;;;;5054740;28;20420;-65
2021/12/01 07:12:49;;;;;;;2.33;1.27;;;;;;;;;;5074047;28;20397;-67
2021/12/01 07:15:15;;;;;;;7.00;1.37;;;;;;;;;;5063449;28;20775;-67
2021/12/01 07:17:42;;;;;;;2.73;1.30;;;;;;;;;;5054390;28;20425;-66
2021/12/01 07:20:08;;;;;;;2.70;1.30;;;;;;;;;;5055490;28;20790;-66
2021/12/01 07:22:34;;;;;;;4.40;2.40;;;;;;;;;;5052619;28;20414;-65
2021/12/01 07:25:01;;;;;;;2.40;1.67;;;;;;;;;;5053867;28;20956;-66
2021/12/01 07:27:27;;;;;;;2.53;1.40;;;;;;;;;;5053955;28;20515;-65
2021/12/01 07:29:54;;;;;;;1.80;1.10;;;;;;;;;;5054812;28;20438;-66
2021/12/01 07:32:20;;;;;;;1.73;1.13;;;;;;;;;;5053766;28;20432;-66
2021/12/01 07:34:46;;;;;;;2.30;1.47;;;;;;;;;;5053704;28;20460;-66
2021/12/01 07:37:13;;;;;;;3.73;1.50;;;;;;;;;;5053592;28;20438;-66
2021/12/01 07:39:39;;;;;;;2.17;1.20;;;;;;;;;;5054959;28;20410;-67
2021/12/01 07:42:06;;;;;;;2.60;1.33;;;;;;;;;;5073419;28;20393;-66
2021/12/01 07:44:32;;;;;;;1.70;1.27;;;;;;;;;;5073469;28;20398;-66
2021/12/01 07:46:58;;;;;;;1.70;1.13;;;;;;;;;;5056954;28;20512;-67
2021/12/01 07:49:25;;;;;;;2.00;1.20;;;;;;;;;;5053109;28;20500;-64
2021/12/01 07:51:51;;;;;;;2.83;1.20;;;;;;;;;;5053048;28;20394;-65
2021/12/01 07:54:17;;;;;;;2.00;1.40;;;;;;;;;;5051733;28;20955;-65
2021/12/01 07:56:43;;;;;;;1.83;1.10;;;;;;;;;;5043788;28;20816;-65
2021/12/01 07:59:11;;;;;;;1.63;1.23;;;;;;;;;;5040917;28;20425;-66
2021/12/01 08:01:37;;;;;;;1.80;0.90;;;;;;;;;;5051141;28;20501;-65
2021/12/01 08:04:03;;;;;;;2.30;1.33;;;;;;;;;;5055007;28;20425;-65
2021/12/01 08:06:32;;;;;;;2.70;1.10;;;;;;;;;;5051404;28;20838;-66
2021/12/01 08:09:00;;;;;;;2.07;1.43;;;;;;;;;;5058554;28;20413;-66
2021/12/01 08:11:27;;;;;;;2.13;1.17;;;;;;;;;;5059465;28;20906;-66
2021/12/01 08:13:53;;;;;;;1.60;1.30;;;;;;;;;;5065554;28;20486;-66
2021/12/01 08:16:19;;;;;;;1.73;1.10;;;;;;;;;;5050473;28;20966;-66
2021/12/01 08:18:50;;;;;;;1.50;1.00;;;;;;;;;;5054668;28;20422;-66
2021/12/01 08:21:17;;;;;;;1.60;1.10;;;;;;;;;;5053390;28;20926;-66
2021/12/01 08:23:43;;;;;;;1.60;1.20;;;;;;;;;;5051809;28;20420;-66
2021/12/01 08:26:09;;;;;;;2.27;1.53;;;;;;;;;;5049869;28;20480;-66
2021/12/01 08:28:35;;;;;;;2.00;1.27;;;;;;;;;;5047878;28;20445;-66
2021/12/01 08:31:01;;;;;;;1.57;1.10;;;;;;;;;;5042916;28;20429;-66
2021/12/01 08:33:27;;;;;;;2.37;1.37;;;;;;;;;;5046245;28;20869;-66
2021/12/01 08:35:53;;;;;;;2.20;1.40;;;;;;;;;;5048949;28;20421;-66
2021/12/01 08:38:19;;;;;;;1.70;1.30;;;;;;;;;;5049152;28;20444;-65
2021/12/01 08:40:45;;;;;;;3.03;1.60;;;;;;;;;;5047378;28;20425;-65
2021/12/01 08:43:11;;;;;;;1.50;1.10;;;;;;;;;;5048765;28;20425;-65
2021/12/01 08:45:37;;;;;;;2.10;1.30;;;;;;;;;;5045148;28;20457;-65
2021/12/01 08:48:05;;;;;;;2.60;1.20;;;;;;;;;;5054359;28;20468;-65
2021/12/01 08:50:31;;;;;;;1.70;1.23;;;;;;;;;;5050750;28;20493;-65
2021/12/01 08:52:57;;;;;;;2.50;1.40;;;;;;;;;;5049729;28;20987;-65
2021/12/01 08:55:23;;;;;;;3.77;2.60;;;;;;;;;;5048956;28;21109;-64
2021/12/01 08:57:50;;;;;;;2.10;1.30;;;;;;;;;;5059324;28;20479;-65
2021/12/01 09:00:19;;;;;;;1.57;1.03;;;;;;;;;;5056516;28;20770;-66
2021/12/01 09:02:45;;;;;;;1.87;1.33;;;;;;;;;;5050619;28;20417;-67
2021/12/01 09:05:11;;;;;;;5.40;1.57;;;;;;;;;;5051618;28;20955;-66
2021/12/01 09:07:38;;;;;;;5.40;1.20;;;;;;;;;;5051097;28;20923;-65
2021/12/01 09:10:04;;;;;;;1.43;0.90;;;;;;;;;;5050797;28;20908;-65
2021/12/01 09:12:30;;;;;;;1.90;1.27;;;;;;;;;;5049091;28;20417;-66
2021/12/01 09:14:57;;;;;;;2.70;1.10;;;;;;;;;;5050432;28;20943;-65
2021/12/01 09:17:24;;;;;;;2.03;1.70;;;;;;;;;;5054791;28;20506;-67
2021/12/01 09:19:50;;;;;;;2.13;1.40;;;;;;;;;;5051585;28;20843;-64
2021/12/01 09:22:17;;;;;;;2.93;1.40;;;;;;;;;;5049854;28;20532;-66
2021/12/01 09:24:44;;;;;;;1.87;1.33;;;;;;;;;;5051187;28;20409;-64
2021/12/01 09:27:10;;;;;;;1.80;1.10;;;;;;;;;;5050572;28;20849;-65
2021/12/01 09:29:36;;;;;;;1.50;1.00;;;;;;;;;;5050656;28;20402;-64
2021/12/01 09:32:03;;;;;;;1.70;1.20;;;;;;;;;;5051691;28;20409;-65
2021/12/01 09:34:29;;;;;;;1.50;1.00;;;;;;;;;;5050205;28;20425;-65
2021/12/01 09:36:56;;;;;;;1.40;1.00;;;;;;;;;;5058862;28;20440;-65
2021/12/01 09:39:23;;;;;;;1.50;1.03;;;;;;;;;;5068943;28;20414;-65
2021/12/01 09:41:49;;;;;;;2.40;1.03;;;;;;;;;;5055430;28;20397;-65
2021/12/01 09:44:15;;;;;;;2.23;1.20;;;;;;;;;;5053520;28;20436;-67
2021/12/01 09:46:41;;;;;;;1.93;1.10;;;;;;;;;;5052232;28;20476;-65
2021/12/01 09:49:08;;;;;;;5.73;1.33;;;;;;;;;;5054103;28;20424;-65
2021/12/01 09:51:34;;;;;;;1.80;1.20;;;;;;;;;;5054377;28;20413;-65
2021/12/01 09:54:02;;;;;;;2.00;1.00;;;;;;;;;;5054178;28;20879;-65
2021/12/01 09:56:29;;;;;;;1.60;1.20;;;;;;;;;;5053937;28;20448;-65
2021/12/01 09:58:55;;;;;;;1.50;1.00;;;;;;;;;;5054381;28;20441;-66
2021/12/01 10:01:22;;;;;;;1.83;1.17;;;;;;;;;;5053915;28;20479;-67
2021/12/01 10:03:48;;;;;;;1.80;0.90;;;;;;;;;;5053988;28;20413;-66
2021/12/01 10:06:18;;;;;;;2.40;1.20;;;;;;;;;;5053492;28;20461;-66
2021/12/01 10:08:49;;;;;;;1.60;0.80;;;;;;;;;;5060877;28;20416;-69
2021/12/01 10:11:16;;;;;;;2.23;1.27;;;;;;;;;;5053448;28;20402;-66
2021/12/01 10:13:46;;;;;;;1.63;1.00;;;;;;;;;;5054248;28;20405;-66
2021/12/01 10:16:14;;;;;;;1.60;1.10;;;;;;;;;;5050968;28;20542;-65
2021/12/01 10:18:45;;;;;;;1.80;1.30;;;;;;;;;;5055333;28;20430;-65
2021/12/01 10:21:11;;;;;;;3.00;1.80;;;;;;;;;;5048014;28;20409;-69
2021/12/01 10:23:38;;;;;;;2.40;1.40;;;;;;;;;;5051638;28;20423;-66
2021/12/01 10:26:08;;;;;;;1.50;1.00;;;;;;;;;;5046722;28;20963;-66
2021/12/01 10:28:35;;;;;;;1.40;0.73;;;;;;;;;;5051541;28;20418;-66
2021/12/01 10:31:02;;;;;;;1.50;1.00;;;;;;;;;;5052159;28;20425;-66
2021/12/01 10:33:29;;;;;;;1.70;1.00;;;;;;;;;;5054326;28;20575;-66
2021/12/01 10:35:56;;;;;;;1.70;0.90;;;;;;;;;;5051325;28;20462;-71
2021/12/01 10:38:27;;;;;;;2.43;1.30;;;;;;;;;;5053399;28;20171;-70
2021/12/01 10:41:10;;;;;;;1.63;0.90;;;;;;;;;;5044591;28;20413;-74
2021/12/01 10:43:37;;;;;;;1.93;1.10;;;;;;;;;;5044030;28;20417;-71
2021/12/01 10:46:10;;;;;;;1.60;1.00;;;;;;;;;;5052461;28;20468;-68
2021/12/01 10:48:37;;;;;;;1.63;1.10;;;;;;;;;;5051611;28;20460;-73
2021/12/01 10:51:03;;;;;;;2.07;1.40;;;;;;;;;;5057450;28;20412;-67
2021/12/01 10:53:30;;;;;;;2.57;1.00;;;;;;;;;;5052026;28;20428;-73
2021/12/01 10:55:58;;;;;;;1.63;1.00;;;;;;;;;;5048023;28;20421;-72
2021/12/01 10:58:33;;;;;;;1.50;0.90;;;;;;;;;;5052463;28;20509;-70
2021/12/01 11:01:00;;;;;;;2.00;0.80;;;;;;;;;;5047596;28;20416;-67
2021/12/01 11:03:29;;;;;;;2.37;0.90;;;;;;;;;;5040711;28;20195;-67
2021/12/01 11:05:57;;;;;;;2.00;1.00;;;;;;;;;;5046344;28;20445;-67
2021/12/01 11:08:25;;;;;;;1.50;0.83;;;;;;;;;;5038758;28;20461;-69
2021/12/01 11:10:59;;;;;;;1.60;1.13;;;;;;;;;;5044006;28;20471;-68
2021/12/01 11:13:27;;;;;;;7.13;1.27;;;;;;;;;;5051919;28;20503;-69
2021/12/01 11:15:54;;;;;;;3.20;1.50;;;;;;;;;;5049796;28;20774;-68
2021/12/01 11:18:24;;;;;;;1.90;0.90;;;;;;;;;;5052032;28;20939;-69
2021/12/01 11:20:52;;;;;;;1.50;0.93;;;;;;;;;;5051745;28;20908;-69
2021/12/01 11:23:21;;;;;;;2.03;1.10;;;;;;;;;;5038238;28;21075;-70
2021/12/01 11:25:52;;;;;;;1.70;0.90;;;;;;;;;;5052408;28;20453;-70
2021/12/01 11:28:20;;;;;;;1.90;1.10;;;;;;;;;;5052384;28;20491;-70
2021/12/01 11:30:48;;;;;;;4.70;1.20;;;;;;;;;;5059768;28;20416;-69
2021/12/01 11:33:17;;;;;;;1.60;0.90;;;;;;;;;;5051820;28;20448;-73
2021/12/01 11:35:48;;;;;;;1.50;0.90;;;;;;;;;;5052903;28;20463;-71
2021/12/01 11:38:15;;;;;;;1.80;1.10;;;;;;;;;;5053157;28;20441;-70
2021/12/01 11:40:41;;;;;;;1.60;1.17;;;;;;;;;;5053749;28;20915;-68
2021/12/01 11:43:08;;;;;;;1.60;0.90;;;;;;;;;;5051717;28;20484;-69
2021/12/01 11:45:38;;;;;;;1.60;1.00;;;;;;;;;;5053905;28;20723;-70
2021/12/01 11:48:07;;;;;;;1.50;1.03;;;;;;;;;;5051789;28;20454;-71
2021/12/01 11:50:36;;;;;;;2.30;0.90;;;;;;;;;;5052153;28;20524;-72
2021/12/01 11:53:10;;;;;;;2.90;1.10;;;;;;;;;;5051813;28;20428;-69
2021/12/01 11:55:52;;;;;;;1.60;1.10;;;;;;;;;;5050993;28;20431;-71
2021/12/01 11:58:36;;;;;;;2.20;1.10;;;;;;;;;;5044946;28;20465;-70
2021/12/01 12:01:02;;;;;;;1.83;1.30;;;;;;;;;;5054436;28;20413;-69
2021/12/01 12:03:28;;;;;;;1.83;1.07;;;;;;;;;;5052872;28;20409;-74
2021/12/01 12:06:13;;;;;;;2.20;1.37;;;;;;;;;;5056095;28;20494;-72
2021/12/01 12:08:55;;;;;;;2.17;1.13;;;;;;;;;;5058452;28;20409;-71
2021/12/01 12:11:40;;;;;;;1.57;1.00;;;;;;;;;;5054164;28;20930;-70
2021/12/01 12:14:08;;;;;;;1.60;1.00;;;;;;;;;;5052028;28;20567;-70
2021/12/01 12:16:35;;;;;;;1.90;1.17;;;;;;;;;;5052428;28;20448;-72
2021/12/01 12:19:01;;;;;;;1.80;1.20;;;;;;;;;;5051886;28;20449;-70
2021/12/01 12:21:51;;;;;;;1.60;0.70;;;;;;;;;;5051370;28;20489;-70
2021/12/01 12:24:23;;;;;;;1.80;1.07;;;;;;;;;;5044015;28;20155;-69
2021/12/01 12:26:57;;;;;;;2.27;1.20;;;;;;;;;;5051901;28;20461;-70
2021/12/01 12:29:25;;;;;;;1.60;1.00;;;;;;;;;;5048178;28;20549;-71
2021/12/01 12:31:52;;;;;;;1.70;0.90;;;;;;;;;;5052109;28;20451;-67
2021/12/01 12:34:29;;;;;;;1.90;1.20;;;;;;;;;;5051138;28;20462;-67
2021/12/01 12:36:57;;;;;;;1.40;0.80;;;;;;;;;;5052061;28;20433;-69
2021/12/01 12:39:23;;;;;;;1.93;0.80;;;;;;;;;;5042282;28;20857;-69
2021/12/01 12:41:57;;;;;;;1.50;0.90;;;;;;;;;;5048580;28;20425;-69
2021/12/01 12:44:28;;;;;;;1.70;1.03;;;;;;;;;;5052536;28;20787;-70
2021/12/01 12:47:01;;;;;;;1.97;1.20;;;;;;;;;;5050218;28;20477;-71
2021/12/01 12:49:39;;;;;;;3.10;0.80;;;;;;;;;;5049176;28;20533;-68
2021/12/01 12:52:25;;;;;;;1.70;1.20;;;;;;;;;;5051265;28;20167;-68
2021/12/01 12:54:56;;;;;;;1.93;1.00;;;;;;;;;;5049853;28;20916;-68
2021/12/01 12:57:23;;;;;;;1.40;0.83;;;;;;;;;;5049942;28;20528;-68
2021/12/01 12:59:49;;;;;;;1.40;0.80;;;;;;;;;;5049881;28;20410;-68
2021/12/01 13:02:15;;;;;;;1.63;1.13;;;;;;;;;;5042012;28;20440;-68
2021/12/01 13:05:02;;;;;;;1.73;1.10;;;;;;;;;;5040318;28;20476;-69
2021/12/01 13:07:34;;;;;;;2.80;0.90;;;;;;;;;;5044121;28;20527;-68
2021/12/01 13:10:10;;;;;;;1.47;1.00;;;;;;;;;;5043240;28;20410;-68
2021/12/01 13:12:48;;;;;;;3.00;1.07;;;;;;;;;;5050723;28;20421;-69
2021/12/01 13:15:20;;;;;;;1.40;1.00;;;;;;;;;;5039170;28;20422;-69
2021/12/01 13:17:50;;;;;;;4.83;1.10;;;;;;;;;;5058622;28;20437;-69
2021/12/01 13:20:23;;;;;;;3.20;0.90;;;;;;;;;;5059824;28;20470;-69
2021/12/01 13:23:03;;;;;;;1.90;1.03;;;;;;;;;;5058417;28;20425;-67
2021/12/01 13:25:29;;;;;;;2.33;1.27;;;;;;;;;;5057539;28;20510;-68
2021/12/01 13:27:55;;;;;;;1.80;1.10;;;;;;;;;;5061127;28;20771;-69
2021/12/01 13:30:22;;;;;;;1.97;1.17;;;;;;;;;;5055263;28;20429;-68
2021/12/01 13:33:06;;;;;;;1.63;1.07;;;;;;;;;;5050242;28;20543;-69
2021/12/01 13:35:32;;;;;;;1.70;1.27;;;;;;;;;;5058314;28;20679;-68
2021/12/01 13:37:59;;;;;;;1.80;1.10;;;;;;;;;;5062493;28;20512;-66
2021/12/01 13:40:28;;;;;;;2.03;1.00;;;;;;;;;;5052181;28;20414;-66
2021/12/01 13:42:54;;;;;;;5.03;1.00;;;;;;;;;;5055809;28;20421;-70
2021/12/01 13:45:24;;;;;;;2.27;1.00;;;;;;;;;;5054761;28;20467;-70
2021/12/01 13:47:50;;;;;;;2.03;1.17;;;;;;;;;;5056327;28;20955;-69
2021/12/01 13:50:17;;;;;;;2.30;1.03;;;;;;;;;;5051460;28;20888;-68
2021/12/01 13:52:44;;;;;;;2.10;0.90;;;;;;;;;;5046008;28;20419;-67
2021/12/01 13:55:12;;;;;;;1.70;1.10;;;;;;;;;;5045184;28;20183;-73
2021/12/01 13:57:39;;;;;;;2.33;1.13;;;;;;;;;;5051263;28;20457;-73
2021/12/01 14:00:06;;;;;;;1.83;1.00;;;;;;;;;;5049768;28;20537;-71
2021/12/01 14:02:32;;;;;;;1.80;1.00;;;;;;;;;;5059844;28;20498;-71
2021/12/01 14:04:59;;;;;;;1.80;0.97;;;;;;;;;;5052150;28;20548;-74
2021/12/01 14:07:38;;;;;;;1.90;0.88;;;;;;;;;;5056711;28;20814;-67
2021/12/01 14:10:09;;;;;;;1.70;1.13;;;;;;;;;;5060151;28;20178;-72
2021/12/01 14:12:36;;;;;;;2.97;1.20;;;;;;;;;;5052147;28;20417;-73
2021/12/01 14:15:03;;;;;;;4.73;1.73;;;;;;;;;;5054005;28;20418;-72
2021/12/01 14:17:29;;;;;;;3.30;1.17;;;;;;;;;;5066921;28;20444;-71
2021/12/01 14:19:56;;;;;;;2.50;0.90;;;;;;;;;;5053757;28;20711;-73
2021/12/01 14:22:22;;;;;;;1.85;0.70;;;;;;;;;;5057000;28;20422;-73
2021/12/01 14:24:53;;;;;;;1.80;0.90;;;;;;;;;;5062402;28;20269;-71
2021/12/01 14:27:23;;;;;;;2.00;0.90;;;;;;;;;;5054069;28;20447;-71
2021/12/01 14:29:52;;;;;;;1.70;1.10;;;;;;;;;;5045907;28;20207;-73
2021/12/01 14:32:23;;;;;;;1.83;1.00;;;;;;;;;;5049251;28;20429;-74
2021/12/01 14:34:49;;;;;;;4.50;1.80;;;;;;;;;;5050253;28;20497;-72
2021/12/01 14:37:16;;;;;;;2.37;1.00;;;;;;;;;;5059970;28;20449;-71
2021/12/01 14:39:42;;;;;;;1.70;1.00;;;;;;;;;;5053781;28;20468;-72
2021/12/01 14:42:09;;;;;;;1.90;1.10;;;;;;;;;;5053783;28;20414;-76
2021/12/01 14:44:37;;;;;;;1.50;0.93;;;;;;;;;;5055956;28;20410;-75
2021/12/01 14:47:08;;;;;;;1.37;0.80;;;;;;;;;;5053003;28;20997;-74
2021/12/01 14:49:38;;;;;;;1.50;1.00;;;;;;;;;;5054884;28;20412;-70
2021/12/01 14:52:05;;;;;;;2.27;1.00;;;;;;;;;;5060241;28;20926;-74
2021/12/01 14:54:38;;;;;;;2.90;1.00;;;;;;;;;;5052174;28;20894;-70